Airfield :
LOGIN :

Register | Disclaimer

   EN    FR    IT 

 










Legend :    VFR   Marginal VFR   IFR   Intensive IFR   Very Intensive IFR
Visi :
Ceiling :
>= 8 km
>= 3000ft
5 to 8 km
1000 to 3000 ft
1500m to 5 km
500 to 1000 ft
800 to 1500m
200 to 500 ft
< 800m
< 200 ft
Symbols :   Thunderstorms  Fog  Heavy snow  Heavy precipitations  Wind > 20 kt
SIGMETs :     Misc.  Thunderstorms  Icing  Turbulence  Mountain Waves  Volcanic Ashes






- Airport Elevation : 404 ft
- IATA code : WRO


EPWR - Wroclaw

CURRENT METAR :
  • 100430Z 13008KT CAVOK 10/05 Q1011

EXPIRED METARs :
  • 100400Z 13004KT CAVOK 10/05 Q1011
  • 100330Z 12004KT CAVOK 09/04 Q1011
  • 100300Z 14007KT CAVOK 08/04 Q1011
  • 100230Z 14005KT CAVOK 09/05 Q1011
  • 100200Z 12007KT CAVOK 09/05 Q1011
  • 100130Z 12008KT CAVOK 09/04 Q1011

TAF TAF EPWR
Valid from the 10 at 03:00 until the 11 at 03:00 UTC


100230Z 1003/1103 12010KT CAVOK
BECMG 1005/1008 18015G25KT
BECMG 1014/1017 15010KT



MET'MAP, your aeronautical weather chart ! - Copyright ORBIFLY December 2007 - Disclaimer

ORBIFLY MET'MAP TEAM :

Programming & Development : Alexandra Zaïnal
Concept & original design : Baudouin d'Aumeries
Assistance for programming : Marc-Olivier Méhu
Technical & hardware support : Manuel Goepfert

Contact : metmap@orbifly.com




SOURCES & CREDITS :

   NOAA